createdAt,value
2023-03-21T00:00:04.456Z,26.82
2023-03-21T00:04:04.477Z,26.85
2023-03-21T00:08:04.467Z,26.84
2023-03-21T00:12:04.393Z,26.82
2023-03-21T00:16:04.757Z,26.84
2023-03-21T00:20:05.417Z,26.82
2023-03-21T00:24:04.386Z,26.87
2023-03-21T00:28:08.365Z,26.81
2023-03-21T00:32:04.243Z,26.85
2023-03-21T00:36:05.729Z,26.82
2023-03-21T00:40:04.516Z,26.85
2023-03-21T00:44:04.199Z,26.79
2023-03-21T00:48:04.300Z,26.82
2023-03-21T00:52:30.526Z,26.88
2023-03-21T00:56:05.105Z,26.82
2023-03-21T01:00:04.037Z,26.81
2023-03-21T01:04:04.028Z,26.82
2023-03-21T01:08:08.137Z,26.83
2023-03-21T01:12:04.925Z,26.83
2023-03-21T01:16:03.949Z,26.83
2023-03-21T01:20:03.850Z,26.82
2023-03-21T01:24:03.980Z,26.83
2023-03-21T01:28:03.789Z,26.77
2023-03-21T01:32:03.711Z,26.83
2023-03-21T01:36:12.849Z,26.79
2023-03-21T01:40:04.684Z,26.83
2023-03-21T01:44:03.667Z,26.83
2023-03-21T01:48:03.588Z,26.82
2023-03-21T01:52:11.896Z,26.89
2023-03-21T01:56:04.502Z,26.84
2023-03-21T02:00:03.466Z,26.84
2023-03-21T02:04:03.568Z,26.79
2023-03-21T02:08:03.439Z,26.81
2023-03-21T02:12:03.380Z,26.81
2023-03-21T02:16:03.392Z,26.81
2023-03-21T02:20:03.364Z,26.78
2023-03-21T02:24:03.505Z,26.80
2023-03-21T02:28:03.557Z,26.84
2023-03-21T02:32:17.847Z,26.85
2023-03-21T02:36:13.640Z,26.81
2023-03-21T02:40:04.611Z,26.78
2023-03-21T02:44:03.539Z,26.80
2023-03-21T02:48:04.154Z,26.82
2023-03-21T02:52:14.453Z,26.82
2023-03-21T02:56:04.461Z,26.85
2023-03-21T03:00:15.549Z,26.79
2023-03-21T03:04:04.399Z,26.84
2023-03-21T03:08:03.370Z,26.82
2023-03-21T03:12:03.292Z,26.79
2023-03-21T03:16:03.306Z,26.81
2023-03-21T03:20:15.153Z,26.81
2023-03-21T03:24:04.182Z,26.79
2023-03-21T03:28:03.163Z,26.82
2023-03-21T03:34:09.396Z,26.85
2023-03-21T03:38:09.322Z,26.83
2023-03-21T03:42:25.454Z,26.83
2023-03-21T03:46:10.249Z,26.80
2023-03-21T03:50:09.220Z,26.80
2023-03-21T03:54:09.162Z,26.85
2023-03-21T03:58:21.144Z,26.80
2023-03-21T04:02:10.150Z,26.82
2023-03-21T04:06:09.089Z,26.82
2023-03-21T04:10:09.023Z,26.84
2023-03-21T04:14:08.983Z,26.82
2023-03-21T04:18:08.955Z,26.87
2023-03-21T04:22:08.892Z,26.83
2023-03-21T04:26:08.846Z,26.87
2023-03-21T04:30:08.868Z,26.84
2023-03-21T04:34:08.883Z,26.85
2023-03-21T04:38:08.886Z,26.82
2023-03-21T04:42:09.003Z,26.84
2023-03-21T04:46:09.096Z,26.84
2023-03-21T04:50:09.051Z,26.84
2023-03-21T04:54:10.162Z,26.84
2023-03-21T04:58:09.159Z,26.85
2023-03-21T05:02:09.209Z,26.80
2023-03-21T05:06:09.346Z,26.79
2023-03-21T05:10:09.484Z,26.76
2023-03-21T05:14:09.604Z,26.67
2023-03-21T05:18:09.749Z,26.61
2023-03-21T05:22:09.891Z,26.55
2023-03-21T05:26:10.057Z,26.50
2023-03-21T05:30:10.127Z,26.48
2023-03-21T05:34:10.253Z,26.50
2023-03-21T05:38:10.348Z,26.49
2023-03-21T05:42:10.463Z,26.51
2023-03-21T05:46:10.633Z,26.46
2023-03-21T05:50:10.671Z,26.47
2023-03-21T05:54:10.686Z,26.37
2023-03-21T05:58:10.926Z,26.44
2023-03-21T06:02:10.958Z,26.30
2023-03-21T06:06:11.127Z,26.70
2023-03-21T06:10:11.070Z,27.18
2023-03-21T06:14:11.122Z,28.01
2023-03-21T06:18:11.105Z,27.35
2023-03-21T06:22:10.998Z,27.79
2023-03-21T06:26:10.947Z,28.24
2023-03-21T06:30:10.951Z,28.24
2023-03-21T06:34:10.832Z,28.23
2023-03-21T06:38:10.831Z,28.79
2023-03-21T06:42:10.816Z,28.90
2023-03-21T06:46:11.178Z,29.78
2023-03-21T06:50:10.747Z,30.50
2023-03-21T06:54:10.672Z,30.42
2023-03-21T06:58:10.622Z,30.63
2023-03-21T07:02:10.613Z,29.71
2023-03-21T07:06:10.634Z,30.11
2023-03-21T07:10:10.908Z,31.00
2023-03-21T07:14:10.928Z,31.00
2023-03-21T07:18:11.178Z,30.80
2023-03-21T07:22:11.309Z,30.69
2023-03-21T07:26:11.322Z,30.62
2023-03-21T07:30:11.405Z,30.50
2023-03-21T07:34:11.417Z,30.20
2023-03-21T07:38:11.547Z,30.73
2023-03-21T07:42:11.650Z,28.61
2023-03-21T07:46:11.786Z,29.44
2023-03-21T07:50:12.204Z,29.48
2023-03-21T07:54:12.136Z,30.50
2023-03-21T07:58:12.169Z,30.51
2023-03-21T08:02:12.392Z,30.60
2023-03-21T08:06:12.439Z,30.42
2023-03-21T08:10:12.540Z,30.31
2023-03-21T08:14:12.730Z,30.49
2023-03-21T08:18:12.556Z,30.29
2023-03-21T08:22:12.481Z,29.91
2023-03-21T08:26:12.443Z,29.77
2023-03-21T08:30:12.491Z,29.43
2023-03-21T08:34:12.392Z,29.23
2023-03-21T08:38:12.317Z,29.18
2023-03-21T08:42:12.280Z,29.04
2023-03-21T08:46:12.322Z,28.97
2023-03-21T08:50:12.248Z,28.89
2023-03-21T08:54:12.210Z,28.77
2023-03-21T08:58:12.185Z,28.66
2023-03-21T09:02:12.180Z,28.60
2023-03-21T09:06:12.104Z,28.51
2023-03-21T09:10:21.059Z,28.46
2023-03-21T09:14:13.016Z,28.37
2023-03-21T09:18:11.989Z,28.23
2023-03-21T09:22:11.961Z,28.24
2023-03-21T09:26:11.894Z,28.21
2023-03-21T09:30:11.860Z,27.82
2023-03-21T09:34:11.955Z,27.32
2023-03-21T09:38:11.831Z,26.77
2023-03-21T09:42:14.209Z,26.60
2023-03-21T09:46:11.984Z,27.06
2023-03-21T09:50:15.085Z,27.86
2023-03-21T09:54:11.802Z,28.34
2023-03-21T09:58:11.691Z,28.55
2023-03-21T10:02:11.671Z,28.77
2023-03-21T10:06:11.634Z,28.77
2023-03-21T10:10:11.769Z,28.98
2023-03-21T10:14:11.594Z,28.93
2023-03-21T10:18:11.516Z,28.88
2023-03-21T10:22:11.497Z,28.84
2023-03-21T10:26:14.765Z,28.77
2023-03-21T10:30:12.467Z,28.82
2023-03-21T10:34:11.783Z,28.66
2023-03-21T10:38:11.754Z,28.53
2023-03-21T10:42:11.315Z,28.14
2023-03-21T10:46:11.358Z,27.77
2023-03-21T10:50:11.684Z,27.48
2023-03-21T10:54:11.556Z,27.22
2023-03-21T10:58:11.538Z,27.02
2023-03-21T11:02:11.539Z,26.89
2023-03-21T11:06:11.480Z,26.70
2023-03-21T11:10:14.616Z,26.57
2023-03-21T11:14:12.765Z,26.71
2023-03-21T11:18:11.358Z,26.66
2023-03-21T11:22:11.526Z,26.68
2023-03-21T11:26:11.726Z,26.75
2023-03-21T11:30:11.909Z,26.63
2023-03-21T11:34:12.051Z,26.60
2023-03-21T11:38:12.276Z,26.57
2023-03-21T11:42:12.414Z,26.56
2023-03-21T11:46:12.800Z,26.56
2023-03-21T11:50:12.739Z,26.64
2023-03-21T11:54:13.006Z,26.62
2023-03-21T11:58:14.862Z,26.55
2023-03-21T12:02:13.304Z,26.61
2023-03-21T12:06:13.390Z,26.46
2023-03-21T12:10:13.520Z,26.49
2023-03-21T12:14:13.686Z,26.40
2023-03-21T12:18:14.288Z,26.40
2023-03-21T12:22:13.993Z,26.40
2023-03-21T12:26:14.185Z,26.47
2023-03-21T12:30:14.617Z,26.59
2023-03-21T12:34:14.558Z,26.48
2023-03-21T12:38:14.707Z,26.72
2023-03-21T12:42:14.891Z,26.48
2023-03-21T12:46:15.227Z,26.67
2023-03-21T12:50:15.326Z,26.57
2023-03-21T12:54:15.419Z,26.65
2023-03-21T12:58:15.621Z,26.58
2023-03-21T13:02:15.946Z,26.61
2023-03-21T13:06:15.800Z,26.58
2023-03-21T13:10:15.766Z,26.60
2023-03-21T13:14:15.726Z,26.84
2023-03-21T13:18:15.780Z,27.29
2023-03-21T13:22:15.694Z,27.23
2023-03-21T13:26:15.610Z,27.10
2023-03-21T13:30:15.613Z,26.79
2023-03-21T13:34:15.647Z,26.92
2023-03-21T13:38:15.553Z,27.04
2023-03-21T13:42:15.514Z,26.92
2023-03-21T13:46:15.686Z,26.69
2023-03-21T13:50:15.787Z,26.94
2023-03-21T13:54:15.865Z,26.44
2023-03-21T13:58:15.930Z,26.55
2023-03-21T14:02:16.035Z,26.49
2023-03-21T14:06:16.088Z,26.45
2023-03-21T14:10:16.117Z,26.36
2023-03-21T14:14:16.139Z,26.44
2023-03-21T14:18:27.731Z,26.46
2023-03-21T14:22:17.236Z,26.26
2023-03-21T14:26:16.107Z,26.26
2023-03-21T14:30:16.097Z,26.26
2023-03-21T14:34:16.074Z,26.33
2023-03-21T14:38:16.101Z,26.26
2023-03-21T14:42:15.980Z,26.33
2023-03-21T14:46:16.084Z,26.37
2023-03-21T14:50:16.070Z,26.34
2023-03-21T14:54:16.162Z,26.38
2023-03-21T14:58:16.133Z,26.34
2023-03-21T15:02:16.243Z,26.39
2023-03-21T15:06:16.204Z,26.41
2023-03-21T15:10:16.286Z,26.39
2023-03-21T15:14:16.211Z,26.35
2023-03-21T15:18:16.285Z,26.34
2023-03-21T15:22:16.314Z,26.42
2023-03-21T15:26:16.399Z,26.42
2023-03-21T15:30:16.376Z,26.36
2023-03-21T15:34:16.392Z,26.36
2023-03-21T15:38:16.448Z,26.40
2023-03-21T15:42:16.544Z,26.46
2023-03-21T15:46:16.630Z,26.41
2023-03-21T15:50:17.407Z,26.43
2023-03-21T15:54:16.636Z,26.41
2023-03-21T15:58:16.799Z,26.45
2023-03-21T16:02:16.897Z,26.49
2023-03-21T16:06:16.814Z,26.47
2023-03-21T16:10:16.935Z,26.50
2023-03-21T16:14:17.069Z,26.50
2023-03-21T16:18:17.143Z,26.51
2023-03-21T16:22:17.159Z,26.48
2023-03-21T16:26:17.320Z,26.52
2023-03-21T16:30:17.406Z,26.55
2023-03-21T16:34:17.442Z,26.56
2023-03-21T16:38:17.561Z,26.62
2023-03-21T16:42:17.673Z,26.60
2023-03-21T16:46:17.815Z,26.63
2023-03-21T16:50:17.904Z,26.67
2023-03-21T16:54:18.082Z,26.70
2023-03-21T16:58:18.172Z,26.67
2023-03-21T17:02:18.296Z,26.77
2023-03-21T17:06:18.467Z,26.79
2023-03-21T17:10:18.933Z,26.76
2023-03-21T17:14:18.935Z,26.79
2023-03-21T17:18:19.046Z,26.80
2023-03-21T17:22:19.265Z,26.79
2023-03-21T17:26:19.485Z,26.84
2023-03-21T17:30:19.782Z,26.87
2023-03-21T17:34:19.910Z,26.94
2023-03-21T17:38:20.136Z,26.94
2023-03-21T17:42:20.097Z,26.98
2023-03-21T17:46:20.056Z,26.99
2023-03-21T17:50:19.984Z,27.03
2023-03-21T17:54:20.418Z,27.05
2023-03-21T17:58:19.902Z,27.10
2023-03-21T18:02:19.936Z,27.08
2023-03-21T18:06:19.918Z,27.08
2023-03-21T18:10:19.803Z,27.14
2023-03-21T18:14:26.325Z,27.19
2023-03-21T18:18:20.717Z,27.25
2023-03-21T18:22:19.708Z,27.23
2023-03-21T18:26:19.808Z,27.25
2023-03-21T18:30:44.585Z,27.33
2023-03-21T18:34:20.693Z,27.31
2023-03-21T18:38:19.630Z,27.34
2023-03-21T18:42:21.862Z,27.27
2023-03-21T18:46:19.560Z,27.37
2023-03-21T18:50:19.485Z,27.46
2023-03-21T18:54:19.497Z,27.45
2023-03-21T18:58:19.423Z,27.42
2023-03-21T19:02:19.368Z,27.45
2023-03-21T19:06:19.373Z,27.51
2023-03-21T19:10:20.332Z,27.66
2023-03-21T19:14:19.294Z,27.70
2023-03-21T19:18:52.031Z,27.71
2023-03-21T19:22:20.166Z,27.79
2023-03-21T19:26:19.166Z,27.71
2023-03-21T19:30:19.733Z,27.74
2023-03-21T19:34:19.057Z,27.81
2023-03-21T19:38:19.075Z,27.82
2023-03-21T19:42:19.036Z,27.94
2023-03-21T19:46:18.987Z,27.86
2023-03-21T19:54:20.013Z,27.83
2023-03-21T19:58:18.919Z,27.79
2023-03-21T20:02:35.155Z,27.82
2023-03-21T20:06:19.933Z,27.83
2023-03-21T20:10:18.777Z,27.86
2023-03-21T20:14:18.740Z,28.00
2023-03-21T20:18:18.698Z,28.00
2023-03-21T20:22:27.174Z,28.01
2023-03-21T20:26:19.674Z,28.05
2023-03-21T20:30:18.624Z,28.13
2023-03-21T20:34:18.579Z,28.08
2023-03-21T20:38:18.564Z,28.13
2023-03-21T20:42:18.514Z,28.15
2023-03-21T20:46:18.621Z,28.04
2023-03-21T20:50:18.444Z,28.07
2023-03-21T20:54:18.390Z,27.98
2023-03-21T20:58:44.409Z,28.03
2023-03-21T21:02:19.352Z,27.98
2023-03-21T21:06:18.349Z,27.98
2023-03-21T21:10:18.280Z,27.99
2023-03-21T21:14:18.272Z,27.95
2023-03-21T21:18:18.460Z,27.95
2023-03-21T21:22:18.168Z,27.92
2023-03-21T21:26:18.111Z,27.92
2023-03-21T21:30:18.136Z,27.93
2023-03-21T21:34:18.202Z,27.93
2023-03-21T21:38:18.282Z,27.92
2023-03-21T21:42:18.348Z,27.93
2023-03-21T21:46:18.502Z,27.93
2023-03-21T21:50:19.858Z,27.94
2023-03-21T21:54:18.716Z,27.92
2023-03-21T21:58:18.432Z,27.94
2023-03-21T22:02:18.389Z,27.91
2023-03-21T22:06:18.361Z,27.92
2023-03-21T22:10:18.400Z,27.90
2023-03-21T22:14:18.312Z,27.90
2023-03-21T22:18:18.234Z,27.91
2023-03-21T22:22:18.219Z,27.88
2023-03-21T22:26:18.249Z,27.91
2023-03-21T22:30:18.128Z,27.92
2023-03-21T22:34:18.086Z,27.87
2023-03-21T22:38:18.077Z,27.88
2023-03-21T22:42:18.043Z,27.93
2023-03-21T22:46:18.105Z,27.92
2023-03-21T22:50:17.953Z,27.93
2023-03-21T22:54:17.982Z,27.91
2023-03-21T22:58:17.918Z,27.88
2023-03-21T23:02:18.094Z,27.88
2023-03-21T23:06:18.035Z,27.93
2023-03-21T23:10:18.193Z,27.88
2023-03-21T23:14:18.264Z,27.89
2023-03-21T23:18:18.389Z,27.83
2023-03-21T23:22:18.532Z,27.88
2023-03-21T23:26:18.607Z,27.88
2023-03-21T23:30:18.684Z,27.83
2023-03-21T23:34:18.874Z,27.79
2023-03-21T23:38:18.880Z,27.85
2023-03-21T23:42:19.021Z,27.82
2023-03-21T23:46:19.121Z,27.82
2023-03-21T23:50:26.192Z,27.82
2023-03-21T23:54:19.195Z,27.85
2023-03-21T23:58:19.583Z,27.83
